createdAt,value
2023-03-11T00:00:49.589Z,68.82
2023-03-11T00:03:28.972Z,68.59
2023-03-11T00:06:00.303Z,68.71
2023-03-11T00:08:28.777Z,68.69
2023-03-11T00:11:00.606Z,68.54
2023-03-11T00:13:30.239Z,68.73
2023-03-11T00:16:00.795Z,68.85
2023-03-11T00:18:31.632Z,68.64
2023-03-11T00:21:01.232Z,68.69
2023-03-11T00:23:29.743Z,68.93
2023-03-11T00:25:59.844Z,68.83
2023-03-11T00:28:28.125Z,68.92
2023-03-11T00:30:56.334Z,68.98
2023-03-11T00:33:24.514Z,69.28
2023-03-11T00:35:52.802Z,69.30
2023-03-11T00:38:21.427Z,69.27
2023-03-11T00:40:50.098Z,69.28
2023-03-11T00:43:18.238Z,69.50
2023-03-11T00:45:46.467Z,69.60
2023-03-11T00:48:15.444Z,69.78
2023-03-11T00:50:44.087Z,69.83
2023-03-11T00:53:12.515Z,69.73
2023-03-11T00:55:41.289Z,69.87
2023-03-11T00:58:12.975Z,69.94
2023-03-11T01:00:49.924Z,69.80
2023-03-11T01:03:18.249Z,69.95
2023-03-11T01:05:47.285Z,69.90
2023-03-11T01:08:15.392Z,69.91
2023-03-11T01:10:43.691Z,70.03
2023-03-11T01:13:11.837Z,69.94
2023-03-11T01:15:40.001Z,70.00
2023-03-11T01:18:08.135Z,70.02
2023-03-11T01:20:38.122Z,70.03
2023-03-11T01:23:08.523Z,69.96
2023-03-11T01:25:36.962Z,69.93
2023-03-11T01:28:08.305Z,69.97
2023-03-11T01:30:39.525Z,69.89
2023-03-11T01:33:09.777Z,69.94
2023-03-11T01:35:42.393Z,70.01
2023-03-11T01:38:11.332Z,70.21
2023-03-11T01:40:52.040Z,69.99
2023-03-11T01:43:56.353Z,69.92
2023-03-11T01:46:52.003Z,69.84
2023-03-11T01:49:22.822Z,70.19
2023-03-11T01:51:58.516Z,70.18
2023-03-11T01:54:38.075Z,70.20
2023-03-11T01:57:12.575Z,70.15
2023-03-11T01:59:53.368Z,70.21
2023-03-11T02:02:37.210Z,70.12
2023-03-11T02:05:06.103Z,70.07
2023-03-11T02:07:34.468Z,70.19
2023-03-11T02:10:04.890Z,70.20
2023-03-11T02:12:36.587Z,70.06
2023-03-11T02:15:07.210Z,70.24
2023-03-11T02:17:39.257Z,70.25
2023-03-11T02:20:24.611Z,70.24
2023-03-11T02:22:57.139Z,70.40
2023-03-11T02:25:37.355Z,70.40
2023-03-11T02:28:11.085Z,70.44
2023-03-11T02:30:43.343Z,70.57
2023-03-11T02:33:14.695Z,70.60
2023-03-11T02:35:43.448Z,70.55
2023-03-11T02:38:11.670Z,70.59
2023-03-11T02:40:55.724Z,70.57
2023-03-11T02:43:42.040Z,70.33
2023-03-11T02:46:12.444Z,70.49
2023-03-11T02:48:41.743Z,70.44
2023-03-11T02:51:09.927Z,70.42
2023-03-11T02:53:51.791Z,70.41
2023-03-11T02:56:20.053Z,70.36
2023-03-11T02:58:48.295Z,70.14
2023-03-11T03:01:16.505Z,69.92
2023-03-11T03:03:45.712Z,69.95
2023-03-11T03:06:14.131Z,69.79
2023-03-11T03:08:42.335Z,69.73
2023-03-11T03:11:10.532Z,69.71
2023-03-11T03:13:38.822Z,69.69
2023-03-11T03:16:07.572Z,69.80
2023-03-11T03:18:35.998Z,69.66
2023-03-11T03:21:05.632Z,69.60
2023-03-11T03:23:35.444Z,69.62
2023-03-11T03:26:07.205Z,69.76
2023-03-11T03:28:37.685Z,69.63
2023-03-11T03:31:09.700Z,69.68
2023-03-11T03:33:38.901Z,69.55
2023-03-11T03:36:13.915Z,69.57
2023-03-11T03:38:44.888Z,69.54
2023-03-11T03:41:16.554Z,69.49
2023-03-11T03:43:45.552Z,69.59
2023-03-11T03:46:14.553Z,69.69
2023-03-11T03:48:45.579Z,69.63
2023-03-11T03:51:15.066Z,69.58
2023-03-11T03:53:57.360Z,69.72
2023-03-11T03:56:26.109Z,69.61
2023-03-11T03:58:54.737Z,69.59
2023-03-11T04:01:23.812Z,69.75
2023-03-11T04:03:51.959Z,69.62
2023-03-11T04:06:26.363Z,69.68
2023-03-11T04:08:58.641Z,69.69
2023-03-11T04:11:32.946Z,69.71
2023-03-11T04:14:02.680Z,69.68
2023-03-11T04:16:31.763Z,69.70
2023-03-11T04:19:05.748Z,69.65
2023-03-11T04:21:34.453Z,69.74
2023-03-11T04:24:03.416Z,69.67
2023-03-11T04:26:35.002Z,69.78
2023-03-11T04:29:03.267Z,69.79
2023-03-11T04:31:33.757Z,70.02
2023-03-11T04:34:03.707Z,69.91
2023-03-11T04:36:31.994Z,70.07
2023-03-11T04:39:00.666Z,69.78
2023-03-11T04:41:31.608Z,69.71
2023-03-11T04:44:00.475Z,69.82
2023-03-11T04:46:29.055Z,69.78
2023-03-11T04:48:57.670Z,69.75
2023-03-11T04:51:26.113Z,69.87
2023-03-11T04:53:54.877Z,69.68
2023-03-11T04:56:23.216Z,69.97
2023-03-11T04:58:51.664Z,69.86
2023-03-11T05:01:20.397Z,70.15
2023-03-11T05:03:48.716Z,70.17
2023-03-11T05:06:17.960Z,70.09
2023-03-11T05:08:47.003Z,70.47
2023-03-11T05:11:15.253Z,70.46
2023-03-11T05:13:44.218Z,70.86
2023-03-11T05:16:12.851Z,70.94
2023-03-11T05:18:41.247Z,71.46
2023-03-11T05:21:09.754Z,71.28
2023-03-11T05:23:38.029Z,71.17
2023-03-11T05:26:08.065Z,71.71
2023-03-11T05:28:36.479Z,72.06
2023-03-11T05:31:10.194Z,72.31
2023-03-11T05:33:39.261Z,73.28
2023-03-11T05:36:10.428Z,73.05
2023-03-11T05:38:40.600Z,73.65
2023-03-11T05:41:08.828Z,73.90
2023-03-11T05:43:37.384Z,74.42
2023-03-11T05:46:05.937Z,74.58
2023-03-11T05:48:36.389Z,74.41
2023-03-11T05:51:10.642Z,74.73
2023-03-11T05:53:43.600Z,75.36
2023-03-11T05:56:11.744Z,75.56
2023-03-11T05:58:40.447Z,75.50
2023-03-11T06:01:14.640Z,75.45
2023-03-11T06:03:43.221Z,75.45
2023-03-11T06:06:13.490Z,75.75
2023-03-11T06:08:46.166Z,75.78
2023-03-11T06:11:14.567Z,75.57
2023-03-11T06:13:43.953Z,75.43
2023-03-11T06:16:12.934Z,75.51
2023-03-11T06:18:41.495Z,75.36
2023-03-11T06:21:15.756Z,75.31
2023-03-11T06:23:44.638Z,75.48
2023-03-11T06:26:20.318Z,75.43
2023-03-11T06:28:49.922Z,75.40
2023-03-11T06:31:25.860Z,75.55
2023-03-11T06:33:59.298Z,75.38
2023-03-11T06:36:28.030Z,75.57
2023-03-11T06:38:56.268Z,75.48
2023-03-11T06:41:25.790Z,75.71
2023-03-11T06:43:54.140Z,75.39
2023-03-11T06:46:23.750Z,75.37
2023-03-11T06:48:52.808Z,75.44
2023-03-11T06:51:22.129Z,75.31
2023-03-11T06:53:54.859Z,75.27
2023-03-11T06:56:24.100Z,75.33
2023-03-11T06:58:56.719Z,75.22
2023-03-11T07:01:28.213Z,75.09
2023-03-11T07:03:57.242Z,75.05
2023-03-11T07:06:28.444Z,74.84
2023-03-11T07:09:09.373Z,74.61
2023-03-11T07:11:40.280Z,74.50
2023-03-11T07:14:11.390Z,74.42
2023-03-11T07:16:42.617Z,74.37
2023-03-11T07:19:16.808Z,74.29
2023-03-11T07:21:45.038Z,74.16
2023-03-11T07:24:14.468Z,74.07
2023-03-11T07:26:44.493Z,73.98
2023-03-11T07:29:12.931Z,73.71
2023-03-11T07:31:41.595Z,73.47
2023-03-11T07:34:12.684Z,73.45
2023-03-11T07:36:42.554Z,73.40
2023-03-11T07:39:16.388Z,73.48
2023-03-11T07:41:45.640Z,73.50
2023-03-11T07:44:15.848Z,73.23
2023-03-11T07:46:44.612Z,73.05
2023-03-11T07:49:12.997Z,72.78
2023-03-11T07:51:43.701Z,72.67
2023-03-11T07:54:13.560Z,72.05
2023-03-11T07:56:41.778Z,71.87
2023-03-11T07:59:09.979Z,71.43
2023-03-11T08:01:41.088Z,71.33
2023-03-11T08:04:14.342Z,70.84
2023-03-11T08:06:46.767Z,70.09
2023-03-11T08:09:15.422Z,69.96
2023-03-11T08:11:43.586Z,69.27
2023-03-11T08:14:11.842Z,68.58
2023-03-11T08:16:41.175Z,67.27
2023-03-11T08:19:13.024Z,64.38
2023-03-11T08:21:41.206Z,61.79
2023-03-11T08:24:14.132Z,60.57
2023-03-11T08:26:42.625Z,59.24
2023-03-11T08:29:10.851Z,57.96
2023-03-11T08:31:39.059Z,56.15
2023-03-11T08:34:10.166Z,56.01
2023-03-11T08:36:38.378Z,55.41
2023-03-11T08:39:06.973Z,53.44
2023-03-11T08:41:35.254Z,52.86
2023-03-11T08:44:03.490Z,51.12
2023-03-11T08:46:38.632Z,50.13
2023-03-11T08:49:07.024Z,49.60
2023-03-11T08:51:36.746Z,46.80
2023-03-11T08:54:05.186Z,44.42
2023-03-11T08:56:33.462Z,44.21
2023-03-11T08:59:01.634Z,44.88
2023-03-11T09:01:30.319Z,44.39
2023-03-11T09:03:58.780Z,45.11
2023-03-11T09:06:27.092Z,44.26
2023-03-11T09:08:55.259Z,44.63
2023-03-11T09:11:24.437Z,44.89
2023-03-11T09:13:52.577Z,44.27
2023-03-11T09:16:23.319Z,44.45
2023-03-11T09:18:51.529Z,43.47
2023-03-11T09:21:20.218Z,43.25
2023-03-11T09:23:48.471Z,42.59
2023-03-11T09:26:16.639Z,42.51
2023-03-11T09:28:49.078Z,41.98
2023-03-11T09:31:18.639Z,41.96
2023-03-11T09:33:47.489Z,42.00
2023-03-11T09:36:21.490Z,41.82
2023-03-11T09:38:49.680Z,40.25
2023-03-11T09:41:17.789Z,41.04
2023-03-11T09:44:07.396Z,41.62
2023-03-11T09:47:20.786Z,40.42
2023-03-11T09:50:15.224Z,41.29
2023-03-11T09:52:53.640Z,41.56
2023-03-11T09:55:33.900Z,41.15
2023-03-11T09:58:11.395Z,41.53
2023-03-11T10:00:40.976Z,40.65
2023-03-11T10:03:36.392Z,40.59
2023-03-11T10:06:24.248Z,40.51
2023-03-11T10:09:25.305Z,40.15
2023-03-11T10:12:21.391Z,40.82
2023-03-11T10:15:39.699Z,40.68
2023-03-11T10:18:23.172Z,40.60
2023-03-11T10:21:19.061Z,40.60
2023-03-11T10:24:14.978Z,40.69
2023-03-11T10:26:57.819Z,40.77
2023-03-11T10:29:52.870Z,40.50
2023-03-11T10:32:37.117Z,40.61
2023-03-11T10:35:11.399Z,40.13
2023-03-11T10:37:49.735Z,41.03
2023-03-11T10:40:51.112Z,41.37
2023-03-11T10:43:31.791Z,40.20
2023-03-11T10:46:00.276Z,40.06
2023-03-11T10:48:28.375Z,38.72
2023-03-11T10:51:22.884Z,37.57
2023-03-11T10:53:58.172Z,37.05
2023-03-11T10:56:37.008Z,37.25
2023-03-11T10:59:31.634Z,37.11
2023-03-11T11:02:31.687Z,37.12
2023-03-11T11:05:18.014Z,37.34
2023-03-11T11:07:49.801Z,36.60
2023-03-11T11:10:21.843Z,35.98
2023-03-11T11:13:09.044Z,36.37
2023-03-11T11:15:41.494Z,35.85
2023-03-11T11:18:20.094Z,36.48
2023-03-11T11:21:07.512Z,35.89
2023-03-11T11:23:43.074Z,36.27
2023-03-11T11:26:26.580Z,36.12
2023-03-11T11:29:09.975Z,36.43
2023-03-11T11:31:43.142Z,36.37
2023-03-11T11:34:33.416Z,35.92
2023-03-11T11:37:06.338Z,36.09
2023-03-11T11:39:51.959Z,36.07
2023-03-11T11:42:21.601Z,36.84
2023-03-11T11:45:03.686Z,36.88
2023-03-11T11:47:36.911Z,36.35
2023-03-11T11:50:13.367Z,36.39
2023-03-11T11:52:49.912Z,36.36
2023-03-11T11:55:28.453Z,36.74
2023-03-11T11:57:57.748Z,36.71
2023-03-11T12:00:45.862Z,36.90
2023-03-11T12:03:58.296Z,37.10
2023-03-11T12:07:01.150Z,37.89
2023-03-11T12:09:50.624Z,38.05
2023-03-11T12:12:36.428Z,37.82
2023-03-11T12:15:26.452Z,37.33
2023-03-11T12:18:02.724Z,37.58
2023-03-11T12:20:40.176Z,37.93
2023-03-11T12:23:35.715Z,38.04
2023-03-11T12:26:22.107Z,38.04
2023-03-11T12:29:02.316Z,38.04
2023-03-11T12:31:38.978Z,37.81
2023-03-11T12:34:12.757Z,38.04
2023-03-11T12:36:44.613Z,38.18
2023-03-11T12:39:25.174Z,37.78
2023-03-11T12:42:11.761Z,38.10
2023-03-11T12:44:42.209Z,37.53
2023-03-11T12:47:13.386Z,37.90
2023-03-11T12:49:47.467Z,38.19
2023-03-11T12:52:26.614Z,37.87
2023-03-11T12:55:01.278Z,37.73
2023-03-11T12:57:44.338Z,38.19
2023-03-11T13:00:40.169Z,38.28
2023-03-11T13:04:12.701Z,38.14
2023-03-11T13:07:04.280Z,38.16
2023-03-11T13:09:32.857Z,38.77
2023-03-11T13:12:01.004Z,38.63
2023-03-11T13:14:35.947Z,38.69
2023-03-11T13:17:24.933Z,39.60
2023-03-11T13:19:58.238Z,39.99
2023-03-11T13:23:23.470Z,40.31
2023-03-11T13:25:54.444Z,40.34
2023-03-11T13:29:09.160Z,41.00
2023-03-11T13:32:12.489Z,41.66
2023-03-11T13:34:46.499Z,42.33
2023-03-11T13:37:36.242Z,41.99
2023-03-11T13:40:38.489Z,42.37
2023-03-11T13:43:19.199Z,42.74
2023-03-11T13:46:07.431Z,42.98
2023-03-11T13:48:45.899Z,43.34
2023-03-11T13:51:39.124Z,43.50
2023-03-11T13:54:17.824Z,43.43
2023-03-11T13:56:55.926Z,43.50
2023-03-11T13:59:38.038Z,43.46
2023-03-11T14:02:09.738Z,43.80
2023-03-11T14:04:39.319Z,43.79
2023-03-11T14:07:21.418Z,44.38
2023-03-11T14:09:49.815Z,44.72
2023-03-11T14:12:19.175Z,45.03
2023-03-11T14:15:04.765Z,45.32
2023-03-11T14:17:33.254Z,45.39
2023-03-11T14:20:16.250Z,45.16
2023-03-11T14:22:56.430Z,44.18
2023-03-11T14:25:28.990Z,43.38
2023-03-11T14:28:01.724Z,42.77
2023-03-11T14:30:33.674Z,42.52
2023-03-11T14:33:20.573Z,42.25
2023-03-11T14:35:58.040Z,42.09
2023-03-11T14:38:30.737Z,41.39
2023-03-11T14:41:02.711Z,41.60
2023-03-11T14:43:37.762Z,41.81
2023-03-11T14:46:07.427Z,41.80
2023-03-11T14:48:41.818Z,41.68
2023-03-11T14:51:27.640Z,41.83
2023-03-11T14:54:21.478Z,41.91
2023-03-11T14:56:58.501Z,41.81
2023-03-11T14:59:32.545Z,41.54
2023-03-11T15:02:52.002Z,41.68
2023-03-11T15:05:49.558Z,41.69
2023-03-11T15:08:21.391Z,41.74
2023-03-11T15:11:12.626Z,41.83
2023-03-11T15:13:44.159Z,42.00
2023-03-11T15:16:41.840Z,42.24
2023-03-11T15:19:24.622Z,42.19
2023-03-11T15:21:54.555Z,42.24
2023-03-11T15:24:27.838Z,42.22
2023-03-11T15:27:02.335Z,42.37
2023-03-11T15:29:32.276Z,42.58
2023-03-11T15:32:01.318Z,42.99
2023-03-11T15:34:35.281Z,43.00
2023-03-11T15:37:19.600Z,42.93
2023-03-11T15:39:52.206Z,43.24
2023-03-11T15:42:24.575Z,43.59
2023-03-11T15:45:20.776Z,43.60
2023-03-11T15:47:50.873Z,44.13
2023-03-11T15:50:37.272Z,44.31
2023-03-11T15:53:11.309Z,44.44
2023-03-11T15:55:40.113Z,44.56
2023-03-11T15:58:09.773Z,44.68
2023-03-11T16:00:38.150Z,44.81
2023-03-11T16:03:06.366Z,44.65
2023-03-11T16:05:34.550Z,44.77
2023-03-11T16:08:02.683Z,45.01
2023-03-11T16:10:30.807Z,45.09
2023-03-11T16:12:58.968Z,45.07
2023-03-11T16:15:38.003Z,45.34
2023-03-11T16:18:08.933Z,45.42
2023-03-11T16:20:55.530Z,45.69
2023-03-11T16:23:44.740Z,45.79
2023-03-11T16:26:18.733Z,45.85
2023-03-11T16:28:46.899Z,45.87
2023-03-11T16:31:15.046Z,45.99
2023-03-11T16:33:43.175Z,45.93
2023-03-11T16:36:11.382Z,46.17
2023-03-11T16:38:49.365Z,46.26
2023-03-11T16:41:17.632Z,46.41
2023-03-11T16:43:46.352Z,46.53
2023-03-11T16:46:14.562Z,47.04
2023-03-11T16:48:42.747Z,47.34
2023-03-11T16:51:10.982Z,47.26
2023-03-11T16:53:39.159Z,47.40
2023-03-11T16:56:07.507Z,47.49
2023-03-11T16:58:35.612Z,47.69
2023-03-11T17:01:03.982Z,47.74
2023-03-11T17:03:42.082Z,47.89
2023-03-11T17:06:12.208Z,47.94
2023-03-11T17:08:40.422Z,47.91
2023-03-11T17:11:22.447Z,47.83
2023-03-11T17:13:51.116Z,47.81
2023-03-11T17:16:19.549Z,47.86
2023-03-11T17:18:47.940Z,47.89
2023-03-11T17:21:17.246Z,47.38
2023-03-11T17:23:45.733Z,47.65
2023-03-11T17:26:16.898Z,47.49
2023-03-11T17:28:45.104Z,47.76
2023-03-11T17:31:15.701Z,47.58
2023-03-11T17:33:44.850Z,47.78
2023-03-11T17:36:16.300Z,47.63
2023-03-11T17:38:47.348Z,47.72
2023-03-11T17:41:17.566Z,48.18
2023-03-11T17:43:46.231Z,47.95
2023-03-11T17:46:17.929Z,48.26
2023-03-11T17:48:48.265Z,48.22
2023-03-11T17:51:22.630Z,48.02
2023-03-11T17:53:50.819Z,48.30
2023-03-11T17:56:20.612Z,48.35
2023-03-11T17:58:50.378Z,48.27
2023-03-11T18:01:22.887Z,48.56
2023-03-11T18:03:51.394Z,48.47
2023-03-11T18:06:20.573Z,48.67
2023-03-11T18:08:48.893Z,48.72
2023-03-11T18:11:21.679Z,48.80
2023-03-11T18:13:50.606Z,49.22
2023-03-11T18:16:23.389Z,48.92
2023-03-11T18:18:52.445Z,49.56
2023-03-11T18:21:27.320Z,49.74
2023-03-11T18:23:58.087Z,49.93
2023-03-11T18:26:29.237Z,49.97
2023-03-11T18:28:59.405Z,50.10
2023-03-11T18:31:30.254Z,50.36
2023-03-11T18:34:02.574Z,50.57
2023-03-11T18:36:34.587Z,50.90
2023-03-11T18:39:02.923Z,50.94
2023-03-11T18:41:34.237Z,50.93
2023-03-11T18:44:03.342Z,51.27
2023-03-11T18:46:32.948Z,51.76
2023-03-11T18:49:03.847Z,51.83
2023-03-11T18:51:32.836Z,52.05
2023-03-11T18:54:01.466Z,52.16
2023-03-11T18:56:32.536Z,52.43
2023-03-11T18:59:01.405Z,52.34
2023-03-11T19:01:29.714Z,52.58
2023-03-11T19:03:59.998Z,52.68
2023-03-11T19:06:29.383Z,52.53
2023-03-11T19:09:00.524Z,53.05
2023-03-11T19:11:28.700Z,53.20
2023-03-11T19:13:57.360Z,53.44
2023-03-11T19:16:26.765Z,53.62
2023-03-11T19:18:55.538Z,54.22
2023-03-11T19:21:24.127Z,54.23
2023-03-11T19:23:55.076Z,54.70
2023-03-11T19:26:41.483Z,55.32
2023-03-11T19:29:12.170Z,55.29
2023-03-11T19:31:40.501Z,55.54
2023-03-11T19:34:08.610Z,55.75
2023-03-11T19:36:36.727Z,57.24
2023-03-11T19:39:04.867Z,58.44
2023-03-11T19:41:33.043Z,60.21
2023-03-11T19:44:01.545Z,61.01
2023-03-11T19:46:29.827Z,61.79
2023-03-11T19:48:58.985Z,63.15
2023-03-11T19:51:32.934Z,63.29
2023-03-11T19:54:07.303Z,63.61
2023-03-11T19:56:35.491Z,63.99
2023-03-11T19:59:04.109Z,65.18
2023-03-11T20:01:32.293Z,66.25
2023-03-11T20:04:00.501Z,67.22
2023-03-11T20:06:28.738Z,66.51
2023-03-11T20:08:56.934Z,66.39
2023-03-11T20:11:25.257Z,66.99
2023-03-11T20:13:53.462Z,68.28
2023-03-11T20:16:22.635Z,67.69
2023-03-11T20:18:51.590Z,67.12
2023-03-11T20:21:19.836Z,67.41
2023-03-11T20:23:49.081Z,66.74
2023-03-11T20:26:19.213Z,66.50
2023-03-11T20:28:47.548Z,66.03
2023-03-11T20:31:19.913Z,66.08
2023-03-11T20:33:50.747Z,65.47
2023-03-11T20:36:33.223Z,65.44
2023-03-11T20:39:02.290Z,65.01
2023-03-11T20:41:39.044Z,64.94
2023-03-11T20:44:11.295Z,64.85
2023-03-11T20:46:39.960Z,64.53
2023-03-11T20:49:08.347Z,64.40
2023-03-11T20:51:37.352Z,64.69
2023-03-11T20:54:06.874Z,64.75
2023-03-11T20:56:35.061Z,65.22
2023-03-11T20:59:03.282Z,65.34
2023-03-11T21:01:33.969Z,65.43
2023-03-11T21:04:04.547Z,65.65
2023-03-11T21:06:37.052Z,65.64
2023-03-11T21:09:12.105Z,65.57
2023-03-11T21:11:41.592Z,65.33
2023-03-11T21:14:10.512Z,64.92
2023-03-11T21:16:38.941Z,64.66
2023-03-11T21:19:08.887Z,65.70
2023-03-11T21:21:37.678Z,64.49
2023-03-11T21:24:07.205Z,64.02
2023-03-11T21:26:35.482Z,63.65
2023-03-11T21:29:04.366Z,63.77
2023-03-11T21:31:33.111Z,63.44
2023-03-11T21:34:01.364Z,63.31
2023-03-11T21:36:29.966Z,63.07
2023-03-11T21:38:58.128Z,62.58
2023-03-11T21:41:27.777Z,62.27
2023-03-11T21:43:57.170Z,61.94
2023-03-11T21:46:30.452Z,61.34
2023-03-11T21:49:01.427Z,61.31
2023-03-11T21:51:31.256Z,61.37
2023-03-11T21:53:59.552Z,61.07
2023-03-11T21:56:28.771Z,61.01
2023-03-11T21:58:57.294Z,61.01
2023-03-11T22:01:25.584Z,60.98
2023-03-11T22:03:54.078Z,61.10
2023-03-11T22:06:23.244Z,60.93
2023-03-11T22:08:51.453Z,60.56
2023-03-11T22:11:20.601Z,60.30
2023-03-11T22:13:52.449Z,60.08
2023-03-11T22:16:23.030Z,60.22
2023-03-11T22:18:51.639Z,60.20
2023-03-11T22:21:23.588Z,60.04
2023-03-11T22:23:51.823Z,60.07
2023-03-11T22:26:20.061Z,59.77
2023-03-11T22:28:48.188Z,59.74
2023-03-11T22:31:19.019Z,59.74
2023-03-11T22:33:47.317Z,59.65
2023-03-11T22:36:15.589Z,59.69
2023-03-11T22:38:45.074Z,59.50
2023-03-11T22:41:19.240Z,59.16
2023-03-11T22:43:47.492Z,59.06
2023-03-11T22:46:15.674Z,58.94
2023-03-11T22:48:43.897Z,58.95
2023-03-11T22:51:13.033Z,57.85
2023-03-11T22:53:41.152Z,57.43
2023-03-11T22:56:13.380Z,57.64
2023-03-11T22:58:42.682Z,57.66
2023-03-11T23:01:11.780Z,57.52
2023-03-11T23:03:40.473Z,57.38
2023-03-11T23:06:11.089Z,56.81
2023-03-11T23:08:39.209Z,56.78
2023-03-11T23:11:10.696Z,56.90
2023-03-11T23:13:40.224Z,56.76
2023-03-11T23:16:15.424Z,56.59
2023-03-11T23:18:46.562Z,56.89
2023-03-11T23:21:29.769Z,56.62
2023-03-11T23:24:00.743Z,56.65
2023-03-11T23:26:30.283Z,56.84
2023-03-11T23:28:58.512Z,57.03
2023-03-11T23:31:29.288Z,56.91
2023-03-11T23:33:57.804Z,56.89
2023-03-11T23:36:30.261Z,56.91
2023-03-11T23:38:58.558Z,56.91
2023-03-11T23:41:26.812Z,56.94
2023-03-11T23:43:54.989Z,57.12
2023-03-11T23:46:23.137Z,57.01
2023-03-11T23:48:51.263Z,56.91
2023-03-11T23:51:19.404Z,56.99
2023-03-11T23:53:47.660Z,56.78
2023-03-11T23:56:18.378Z,56.75
2023-03-11T23:58:46.781Z,56.45
